sensor_id;sensor_type;location;lat;lon;timestamp;pressure;altitude;pressure_sealevel;temperature;humidity
68948;BME280;55996;49.546;7.400;2023-09-19T00:00:42;98180.72;;;16.98;100.00
68948;BME280;55996;49.546;7.400;2023-09-19T00:03:08;98199.75;;;17.16;100.00
68948;BME280;55996;49.546;7.400;2023-09-19T00:05:35;98186.03;;;17.10;100.00
68948;BME280;55996;49.546;7.400;2023-09-19T00:08:01;98179.56;;;17.02;100.00
68948;BME280;55996;49.546;7.400;2023-09-19T00:10:30;98186.22;;;17.07;100.00
68948;BME280;55996;49.546;7.400;2023-09-19T00:12:57;98204.19;;;17.15;100.00
68948;BME280;55996;49.546;7.400;2023-09-19T00:15:25;98196.09;;;16.91;100.00
68948;BME280;55996;49.546;7.400;2023-09-19T00:17:54;98190.84;;;17.04;100.00
68948;BME280;55996;49.546;7.400;2023-09-19T00:20:19;98188.09;;;16.92;100.00
68948;BME280;55996;49.546;7.400;2023-09-19T00:22:48;98207.22;;;16.96;100.00
68948;BME280;55996;49.546;7.400;2023-09-19T00:25:14;98203.88;;;17.07;100.00
68948;BME280;55996;49.546;7.400;2023-09-19T00:27:41;98203.34;;;17.15;100.00
68948;BME280;55996;49.546;7.400;2023-09-19T00:30:11;98194.81;;;16.84;100.00
68948;BME280;55996;49.546;7.400;2023-09-19T00:32:41;98212.69;;;16.93;100.00
68948;BME280;55996;49.546;7.400;2023-09-19T00:35:07;98216.63;;;17.00;100.00
68948;BME280;55996;49.546;7.400;2023-09-19T00:37:37;98214.94;;;16.99;100.00
68948;BME280;55996;49.546;7.400;2023-09-19T00:40:06;98218.69;;;16.82;100.00
68948;BME280;55996;49.546;7.400;2023-09-19T00:42:35;98218.16;;;16.77;100.00
68948;BME280;55996;49.546;7.400;2023-09-19T00:45:04;98219.75;;;16.80;100.00
68948;BME280;55996;49.546;7.400;2023-09-19T00:47:30;98228.38;;;16.82;100.00
68948;BME280;55996;49.546;7.400;2023-09-19T00:49:56;98225.00;;;16.80;100.00
68948;BME280;55996;49.546;7.400;2023-09-19T00:52:22;98229.72;;;16.74;100.00
68948;BME280;55996;49.546;7.400;2023-09-19T00:54:49;98237.47;;;16.77;100.00
68948;BME280;55996;49.546;7.400;2023-09-19T00:57:14;98237.66;;;16.74;100.00
68948;BME280;55996;49.546;7.400;2023-09-19T00:59:41;98227.31;;;16.71;100.00
68948;BME280;55996;49.546;7.400;2023-09-19T01:02:07;98231.34;;;16.77;100.00
68948;BME280;55996;49.546;7.400;2023-09-19T01:04:33;98237.47;;;16.77;100.00
68948;BME280;55996;49.546;7.400;2023-09-19T01:06:59;98241.69;;;16.80;100.00
68948;BME280;55996;49.546;7.400;2023-09-19T01:09:25;98243.16;;;16.84;100.00
68948;BME280;55996;49.546;7.400;2023-09-19T01:11:53;98241.78;;;16.78;100.00
68948;BME280;55996;49.546;7.400;2023-09-19T01:14:34;98242.75;;;16.77;100.00
68948;BME280;55996;49.546;7.400;2023-09-19T01:17:12;98244.78;;;16.59;100.00
68948;BME280;55996;49.546;7.400;2023-09-19T01:20:03;98260.47;;;16.48;100.00
68948;BME280;55996;49.546;7.400;2023-09-19T01:25:34;98261.66;;;16.57;100.00
68948;BME280;55996;49.546;7.400;2023-09-19T01:28:32;98267.34;;;16.51;100.00
68948;BME280;55996;49.546;7.400;2023-09-19T01:31:04;98264.63;;;16.52;100.00
68948;BME280;55996;49.546;7.400;2023-09-19T01:33:59;98264.34;;;16.42;100.00
68948;BME280;55996;49.546;7.400;2023-09-19T01:36:27;98267.94;;;16.41;100.00
68948;BME280;55996;49.546;7.400;2023-09-19T01:38:54;98277.94;;;16.36;100.00
68948;BME280;55996;49.546;7.400;2023-09-19T01:41:40;98274.38;;;16.23;100.00
68948;BME280;55996;49.546;7.400;2023-09-19T01:44:11;98272.69;;;16.07;100.00
68948;BME280;55996;49.546;7.400;2023-09-19T01:46:41;98279.00;;;16.19;100.00
68948;BME280;55996;49.546;7.400;2023-09-19T01:54:41;98286.47;;;16.12;100.00
68948;BME280;55996;49.546;7.400;2023-09-19T01:57:20;98290.09;;;16.10;100.00
68948;BME280;55996;49.546;7.400;2023-09-19T01:59:56;98288.88;;;16.16;100.00
68948;BME280;55996;49.546;7.400;2023-09-19T02:02:22;98294.16;;;16.01;100.00
68948;BME280;55996;49.546;7.400;2023-09-19T02:04:49;98302.19;;;16.14;100.00
68948;BME280;55996;49.546;7.400;2023-09-19T02:07:16;98298.22;;;16.07;100.00
68948;BME280;55996;49.546;7.400;2023-09-19T02:09:42;98302.19;;;16.14;100.00
68948;BME280;55996;49.546;7.400;2023-09-19T02:12:09;98310.19;;;16.12;100.00
68948;BME280;55996;49.546;7.400;2023-09-19T02:14:34;98299.25;;;16.04;100.00
68948;BME280;55996;49.546;7.400;2023-09-19T02:17:02;98306.91;;;16.09;100.00
68948;BME280;55996;49.546;7.400;2023-09-19T02:19:36;98304.63;;;16.03;100.00
68948;BME280;55996;49.546;7.400;2023-09-19T02:22:04;98292.28;;;16.03;100.00
68948;BME280;55996;49.546;7.400;2023-09-19T02:24:37;98297.16;;;15.95;100.00
68948;BME280;55996;49.546;7.400;2023-09-19T02:27:04;98294.63;;;15.93;100.00
68948;BME280;55996;49.546;7.400;2023-09-19T02:29:30;98310.34;;;15.80;100.00
68948;BME280;55996;49.546;7.400;2023-09-19T02:31:55;98315.28;;;15.87;100.00
68948;BME280;55996;49.546;7.400;2023-09-19T02:34:21;98314.44;;;15.70;100.00
68948;BME280;55996;49.546;7.400;2023-09-19T02:36:47;98320.22;;;15.77;100.00
68948;BME280;55996;49.546;7.400;2023-09-19T02:39:13;98316.31;;;15.84;100.00
68948;BME280;55996;49.546;7.400;2023-09-19T02:41:38;98322.41;;;15.85;100.00
68948;BME280;55996;49.546;7.400;2023-09-19T02:44:04;98307.38;;;15.42;100.00
68948;BME280;55996;49.546;7.400;2023-09-19T02:46:35;98316.16;;;15.57;100.00
68948;BME280;55996;49.546;7.400;2023-09-19T02:49:04;98332.22;;;15.52;100.00
68948;BME280;55996;49.546;7.400;2023-09-19T02:51:32;98332.69;;;15.44;100.00
68948;BME280;55996;49.546;7.400;2023-09-19T02:54:01;98328.16;;;15.46;100.00
68948;BME280;55996;49.546;7.400;2023-09-19T02:56:28;98332.22;;;15.52;100.00
68948;BME280;55996;49.546;7.400;2023-09-19T02:58:55;98338.72;;;15.61;100.00
68948;BME280;55996;49.546;7.400;2023-09-19T03:01:20;98333.94;;;15.53;100.00
68948;BME280;55996;49.546;7.400;2023-09-19T03:03:46;98335.53;;;15.56;100.00
68948;BME280;55996;49.546;7.400;2023-09-19T03:06:12;98330.81;;;15.61;100.00
68948;BME280;55996;49.546;7.400;2023-09-19T03:08:38;98316.38;;;15.38;100.00
68948;BME280;55996;49.546;7.400;2023-09-19T03:11:05;98330.22;;;15.41;100.00
68948;BME280;55996;49.546;7.400;2023-09-19T03:13:32;98330.50;;;15.21;100.00
68948;BME280;55996;49.546;7.400;2023-09-19T03:15:57;98338.22;;;15.40;100.00
68948;BME280;55996;49.546;7.400;2023-09-19T03:18:26;98339.03;;;15.26;100.00
68948;BME280;55996;49.546;7.400;2023-09-19T03:20:53;98352.09;;;15.27;100.00
68948;BME280;55996;49.546;7.400;2023-09-19T03:23:20;98340.88;;;15.24;100.00
68948;BME280;55996;49.546;7.400;2023-09-19T03:25:45;98350.44;;;15.41;100.00
68948;BME280;55996;49.546;7.400;2023-09-19T03:28:11;98348.06;;;15.36;100.00
68948;BME280;55996;49.546;7.400;2023-09-19T03:30:37;98352.31;;;15.39;100.00
68948;BME280;55996;49.546;7.400;2023-09-19T03:33:04;98347.53;;;15.45;100.00
68948;BME280;55996;49.546;7.400;2023-09-19T03:35:30;98341.66;;;15.26;100.00
68948;BME280;55996;49.546;7.400;2023-09-19T03:37:56;98359.28;;;15.40;100.00
68948;BME280;55996;49.546;7.400;2023-09-19T03:40:21;98349.06;;;15.03;100.00
68948;BME280;55996;49.546;7.400;2023-09-19T03:42:48;98351.41;;;15.24;100.00
68948;BME280;55996;49.546;7.400;2023-09-19T03:45:14;98355.41;;;15.31;100.00
68948;BME280;55996;49.546;7.400;2023-09-19T03:47:41;98359.66;;;15.33;100.00
68948;BME280;55996;49.546;7.400;2023-09-19T03:50:07;98360.88;;;15.42;100.00
68948;BME280;55996;49.546;7.400;2023-09-19T03:52:34;98353.00;;;15.42;100.00
68948;BME280;55996;49.546;7.400;2023-09-19T03:54:59;98367.09;;;15.41;100.00
68948;BME280;55996;49.546;7.400;2023-09-19T03:57:26;98364.72;;;15.37;100.00
68948;BME280;55996;49.546;7.400;2023-09-19T03:59:52;98348.94;;;15.21;100.00
68948;BME280;55996;49.546;7.400;2023-09-19T04:02:19;98361.16;;;15.38;100.00
68948;BME280;55996;49.546;7.400;2023-09-19T04:04:48;98345.16;;;15.10;100.00
68948;BME280;55996;49.546;7.400;2023-09-19T04:07:14;98356.59;;;15.25;100.00
68948;BME280;55996;49.546;7.400;2023-09-19T04:09:39;98363.75;;;15.23;100.00
68948;BME280;55996;49.546;7.400;2023-09-19T04:12:05;98366.44;;;15.22;100.00
68948;BME280;55996;49.546;7.400;2023-09-19T04:14:30;98369.53;;;15.14;100.00
68948;BME280;55996;49.546;7.400;2023-09-19T04:16:56;98368.56;;;15.31;100.00
68948;BME280;55996;49.546;7.400;2023-09-19T04:19:21;98357.47;;;15.26;100.00
68948;BME280;55996;49.546;7.400;2023-09-19T04:21:47;98349.91;;;15.20;100.00
68948;BME280;55996;49.546;7.400;2023-09-19T04:24:12;98361.50;;;15.31;100.00
68948;BME280;55996;49.546;7.400;2023-09-19T04:26:38;98361.59;;;15.30;100.00
68948;BME280;55996;49.546;7.400;2023-09-19T04:29:04;98362.44;;;15.30;100.00
68948;BME280;55996;49.546;7.400;2023-09-19T04:31:30;98364.75;;;15.21;100.00
68948;BME280;55996;49.546;7.400;2023-09-19T04:33:56;98357.66;;;15.07;100.00
68948;BME280;55996;49.546;7.400;2023-09-19T04:36:24;98364.34;;;15.12;100.00
68948;BME280;55996;49.546;7.400;2023-09-19T04:38:50;98360.59;;;15.16;100.00
68948;BME280;55996;49.546;7.400;2023-09-19T04:41:15;98370.00;;;15.21;100.00
68948;BME280;55996;49.546;7.400;2023-09-19T04:43:41;98380.53;;;15.21;100.00
68948;BME280;55996;49.546;7.400;2023-09-19T04:46:06;98376.16;;;15.21;100.00
68948;BME280;55996;49.546;7.400;2023-09-19T04:48:32;98370.22;;;15.17;100.00
68948;BME280;55996;49.546;7.400;2023-09-19T04:50:59;98380.25;;;15.11;100.00
68948;BME280;55996;49.546;7.400;2023-09-19T04:53:25;98383.94;;;15.23;100.00
68948;BME280;55996;49.546;7.400;2023-09-19T04:55:51;98376.47;;;15.31;100.00
68948;BME280;55996;49.546;7.400;2023-09-19T04:58:21;98382.78;;;15.12;100.00
68948;BME280;55996;49.546;7.400;2023-09-19T05:00:47;98388.03;;;15.28;100.00
68948;BME280;55996;49.546;7.400;2023-09-19T05:03:12;98387.25;;;15.26;100.00
68948;BME280;55996;49.546;7.400;2023-09-19T05:05:37;98387.00;;;15.31;100.00
68948;BME280;55996;49.546;7.400;2023-09-19T05:08:04;98406.53;;;15.27;100.00
68948;BME280;55996;49.546;7.400;2023-09-19T05:10:32;98411.75;;;15.28;100.00
68948;BME280;55996;49.546;7.400;2023-09-19T05:12:57;98407.50;;;15.26;100.00
68948;BME280;55996;49.546;7.400;2023-09-19T05:15:22;98405.34;;;15.32;100.00
68948;BME280;55996;49.546;7.400;2023-09-19T05:17:52;98411.19;;;15.38;100.00
68948;BME280;55996;49.546;7.400;2023-09-19T05:20:20;98422.94;;;15.32;100.00
68948;BME280;55996;49.546;7.400;2023-09-19T05:25:28;98434.44;;;15.15;100.00
68948;BME280;55996;49.546;7.400;2023-09-19T05:27:56;98434.44;;;15.15;100.00
68948;BME280;55996;49.546;7.400;2023-09-19T05:30:23;98433.75;;;15.11;100.00
68948;BME280;55996;49.546;7.400;2023-09-19T05:32:48;98430.97;;;15.14;100.00
68948;BME280;55996;49.546;7.400;2023-09-19T05:35:14;98428.03;;;15.03;100.00
68948;BME280;55996;49.546;7.400;2023-09-19T05:37:39;98423.22;;;14.95;100.00
68948;BME280;55996;49.546;7.400;2023-09-19T05:40:05;98433.41;;;15.01;100.00
68948;BME280;55996;49.546;7.400;2023-09-19T05:42:38;98440.13;;;15.07;100.00
68948;BME280;55996;49.546;7.400;2023-09-19T05:45:05;98431.88;;;14.81;100.00
68948;BME280;55996;49.546;7.400;2023-09-19T05:47:32;98449.53;;;14.95;100.00
68948;BME280;55996;49.546;7.400;2023-09-19T05:49:57;98452.69;;;14.86;100.00
68948;BME280;55996;49.546;7.400;2023-09-19T05:52:22;98433.75;;;14.95;100.00
68948;BME280;55996;49.546;7.400;2023-09-19T05:54:48;98464.50;;;14.95;100.00
68948;BME280;55996;49.546;7.400;2023-09-19T05:57:14;98454.56;;;15.00;100.00
68948;BME280;55996;49.546;7.400;2023-09-19T05:59:40;98444.13;;;14.98;100.00
68948;BME280;55996;49.546;7.400;2023-09-19T06:02:08;98452.75;;;15.16;100.00
68948;BME280;55996;49.546;7.400;2023-09-19T06:04:35;98460.91;;;15.12;100.00
68948;BME280;55996;49.546;7.400;2023-09-19T06:07:00;98459.56;;;15.05;100.00
68948;BME280;55996;49.546;7.400;2023-09-19T06:09:26;98455.66;;;15.12;100.00
68948;BME280;55996;49.546;7.400;2023-09-19T06:11:53;98455.94;;;15.23;100.00
68948;BME280;55996;49.546;7.400;2023-09-19T06:14:20;98478.31;;;15.30;100.00
68948;BME280;55996;49.546;7.400;2023-09-19T06:16:46;98462.19;;;15.37;100.00
68948;BME280;55996;49.546;7.400;2023-09-19T06:19:12;98457.00;;;15.35;100.00
68948;BME280;55996;49.546;7.400;2023-09-19T06:21:37;98478.84;;;15.37;100.00
68948;BME280;55996;49.546;7.400;2023-09-19T06:24:04;98476.91;;;15.25;100.00
68948;BME280;55996;49.546;7.400;2023-09-19T06:26:29;98480.47;;;15.24;100.00
68948;BME280;55996;49.546;7.400;2023-09-19T06:28:56;98478.41;;;15.29;100.00
68948;BME280;55996;49.546;7.400;2023-09-19T06:31:21;98469.00;;;15.25;100.00
68948;BME280;55996;49.546;7.400;2023-09-19T06:33:51;98478.41;;;15.45;100.00
68948;BME280;55996;49.546;7.400;2023-09-19T06:36:16;98473.50;;;15.23;100.00
68948;BME280;55996;49.546;7.400;2023-09-19T06:38:42;98479.63;;;15.23;100.00
68948;BME280;55996;49.546;7.400;2023-09-19T06:41:08;98497.09;;;15.40;100.00
68948;BME280;55996;49.546;7.400;2023-09-19T06:43:35;98492.75;;;15.39;100.00
68948;BME280;55996;49.546;7.400;2023-09-19T06:46:01;98499.16;;;15.35;100.00
68948;BME280;55996;49.546;7.400;2023-09-19T06:48:27;98520.56;;;15.61;100.00
68948;BME280;55996;49.546;7.400;2023-09-19T06:50:54;98517.25;;;15.57;100.00
68948;BME280;55996;49.546;7.400;2023-09-19T06:53:21;98510.28;;;15.40;100.00
68948;BME280;55996;49.546;7.400;2023-09-19T06:55:49;98527.97;;;15.54;100.00
68948;BME280;55996;49.546;7.400;2023-09-19T06:58:15;98521.41;;;15.45;100.00
68948;BME280;55996;49.546;7.400;2023-09-19T07:00:42;98527.69;;;15.43;100.00
68948;BME280;55996;49.546;7.400;2023-09-19T07:03:08;98530.16;;;15.62;100.00
68948;BME280;55996;49.546;7.400;2023-09-19T07:05:37;98527.44;;;15.63;100.00
68948;BME280;55996;49.546;7.400;2023-09-19T07:08:05;98533.25;;;15.38;100.00
68948;BME280;55996;49.546;7.400;2023-09-19T07:10:31;98533.25;;;15.38;100.00
68948;BME280;55996;49.546;7.400;2023-09-19T07:13:02;98548.25;;;15.68;100.00
68948;BME280;55996;49.546;7.400;2023-09-19T07:15:28;98554.56;;;15.81;100.00
68948;BME280;55996;49.546;7.400;2023-09-19T07:17:56;98553.69;;;15.65;100.00
68948;BME280;55996;49.546;7.400;2023-09-19T07:20:22;98539.34;;;15.71;100.00
68948;BME280;55996;49.546;7.400;2023-09-19T07:22:51;98561.00;;;15.92;100.00
68948;BME280;55996;49.546;7.400;2023-09-19T07:25:17;98560.13;;;16.07;100.00
68948;BME280;55996;49.546;7.400;2023-09-19T07:27:43;98561.56;;;16.13;100.00
68948;BME280;55996;49.546;7.400;2023-09-19T07:30:09;98560.00;;;15.94;100.00
68948;BME280;55996;49.546;7.400;2023-09-19T07:32:35;98568.47;;;15.68;100.00
68948;BME280;55996;49.546;7.400;2023-09-19T07:35:05;98562.72;;;15.77;100.00
68948;BME280;55996;49.546;7.400;2023-09-19T07:37:34;98578.25;;;15.97;100.00
68948;BME280;55996;49.546;7.400;2023-09-19T07:40:00;98582.38;;;15.87;100.00
68948;BME280;55996;49.546;7.400;2023-09-19T07:42:37;98596.31;;;16.05;100.00
68948;BME280;55996;49.546;7.400;2023-09-19T07:45:07;98594.00;;;15.99;100.00
68948;BME280;55996;49.546;7.400;2023-09-19T07:47:33;98583.03;;;15.91;100.00
68948;BME280;55996;49.546;7.400;2023-09-19T07:49:59;98602.16;;;16.10;100.00
68948;BME280;55996;49.546;7.400;2023-09-19T07:52:27;98601.34;;;15.94;100.00
68948;BME280;55996;49.546;7.400;2023-09-19T07:54:53;98609.88;;;16.13;100.00
68948;BME280;55996;49.546;7.400;2023-09-19T07:57:18;98602.03;;;16.28;100.00
68948;BME280;55996;49.546;7.400;2023-09-19T07:59:45;98605.97;;;16.51;100.00
68948;BME280;55996;49.546;7.400;2023-09-19T08:02:11;98597.75;;;16.41;100.00
68948;BME280;55996;49.546;7.400;2023-09-19T08:04:45;98602.97;;;16.72;100.00
68948;BME280;55996;49.546;7.400;2023-09-19T08:07:14;98593.47;;;16.69;100.00
68948;BME280;55996;49.546;7.400;2023-09-19T08:09:39;98606.56;;;16.56;100.00
68948;BME280;55996;49.546;7.400;2023-09-19T08:12:08;98604.63;;;16.44;100.00
68948;BME280;55996;49.546;7.400;2023-09-19T08:14:36;98601.84;;;16.61;100.00
68948;BME280;55996;49.546;7.400;2023-09-19T08:17:01;98599.22;;;16.31;100.00
68948;BME280;55996;49.546;7.400;2023-09-19T08:19:27;98619.88;;;16.39;100.00
68948;BME280;55996;49.546;7.400;2023-09-19T08:21:57;98601.00;;;16.61;100.00
68948;BME280;55996;49.546;7.400;2023-09-19T08:24:25;98600.84;;;16.78;100.00
68948;BME280;55996;49.546;7.400;2023-09-19T08:26:52;98598.53;;;17.03;100.00
68948;BME280;55996;49.546;7.400;2023-09-19T08:29:19;98608.81;;;17.22;100.00
68948;BME280;55996;49.546;7.400;2023-09-19T08:31:45;98606.34;;;17.19;100.00
68948;BME280;55996;49.546;7.400;2023-09-19T08:34:13;98610.81;;;17.18;100.00
68948;BME280;55996;49.546;7.400;2023-09-19T08:36:38;98614.28;;;17.33;100.00
68948;BME280;55996;49.546;7.400;2023-09-19T08:39:04;98619.81;;;17.57;100.00
68948;BME280;55996;49.546;7.400;2023-09-19T08:41:29;98618.69;;;17.62;100.00
68948;BME280;55996;49.546;7.400;2023-09-19T08:43:59;98623.31;;;17.58;100.00
68948;BME280;55996;49.546;7.400;2023-09-19T08:46:30;98628.88;;;17.68;100.00
68948;BME280;55996;49.546;7.400;2023-09-19T08:49:03;98620.69;;;17.43;100.00
68948;BME280;55996;49.546;7.400;2023-09-19T08:51:42;98630.22;;;17.61;100.00
68948;BME280;55996;49.546;7.400;2023-09-19T08:54:24;98625.03;;;17.59;100.00
68948;BME280;55996;49.546;7.400;2023-09-19T08:56:55;98635.59;;;17.59;100.00
68948;BME280;55996;49.546;7.400;2023-09-19T08:59:22;98622.84;;;17.51;100.00
68948;BME280;55996;49.546;7.400;2023-09-19T09:01:49;98625.81;;;17.47;100.00
68948;BME280;55996;49.546;7.400;2023-09-19T09:04:18;98624.38;;;17.41;100.00
68948;BME280;55996;49.546;7.400;2023-09-19T09:06:45;98628.34;;;17.48;100.00
68948;BME280;55996;49.546;7.400;2023-09-19T09:09:14;98638.41;;;17.70;100.00
68948;BME280;55996;49.546;7.400;2023-09-19T09:11:40;98625.25;;;17.83;100.00
68948;BME280;55996;49.546;7.400;2023-09-19T09:14:06;98630.00;;;18.20;100.00
68948;BME280;55996;49.546;7.400;2023-09-19T09:16:32;98629.59;;;18.26;93.71
68948;BME280;55996;49.546;7.400;2023-09-19T09:18:58;98613.03;;;17.53;98.75
68948;BME280;55996;49.546;7.400;2023-09-19T09:21:27;98608.41;;;17.42;100.00
68948;BME280;55996;49.546;7.400;2023-09-19T09:23:52;98611.53;;;17.91;100.00
68948;BME280;55996;49.546;7.400;2023-09-19T09:29:02;98609.97;;;18.56;89.43
68948;BME280;55996;49.546;7.400;2023-09-19T09:31:27;98613.72;;;18.79;89.66
68948;BME280;55996;49.546;7.400;2023-09-19T09:33:54;98612.31;;;18.86;85.16
68948;BME280;55996;49.546;7.400;2023-09-19T09:36:34;98605.06;;;19.03;89.10
68948;BME280;55996;49.546;7.400;2023-09-19T09:39:00;98610.47;;;19.14;90.35
68948;BME280;55996;49.546;7.400;2023-09-19T09:41:41;98600.94;;;19.12;85.65
68948;BME280;55996;49.546;7.400;2023-09-19T09:44:15;98600.03;;;19.37;85.35
68948;BME280;55996;49.546;7.400;2023-09-19T09:46:44;98614.63;;;19.56;74.85
68948;BME280;55996;49.546;7.400;2023-09-19T09:49:25;98623.41;;;18.93;72.54
68948;BME280;55996;49.546;7.400;2023-09-19T09:52:07;98613.16;;;18.48;76.63
68948;BME280;55996;49.546;7.400;2023-09-19T09:54:35;98613.16;;;18.74;81.52
68948;BME280;55996;49.546;7.400;2023-09-19T09:57:10;98591.31;;;18.45;77.45
68948;BME280;55996;49.546;7.400;2023-09-19T09:59:48;98622.03;;;18.60;81.91
68948;BME280;55996;49.546;7.400;2023-09-19T10:02:28;98617.50;;;18.49;82.30
68948;BME280;55996;49.546;7.400;2023-09-19T10:04:58;98606.78;;;18.51;75.35
68948;BME280;55996;49.546;7.400;2023-09-19T10:07:40;98611.72;;;18.83;79.49
68948;BME280;55996;49.546;7.400;2023-09-19T10:10:08;98606.84;;;19.02;86.73
68948;BME280;55996;49.546;7.400;2023-09-19T10:12:55;98607.94;;;19.13;76.58
68948;BME280;55996;49.546;7.400;2023-09-19T10:15:31;98598.34;;;19.36;68.96
68948;BME280;55996;49.546;7.400;2023-09-19T10:18:00;98604.28;;;19.40;75.92
68948;BME280;55996;49.546;7.400;2023-09-19T10:20:28;98614.75;;;19.54;67.97
68948;BME280;55996;49.546;7.400;2023-09-19T10:23:10;98599.91;;;19.39;73.28
68948;BME280;55996;49.546;7.400;2023-09-19T10:25:42;98604.06;;;19.30;75.98
68948;BME280;55996;49.546;7.400;2023-09-19T10:28:12;98608.19;;;19.47;77.70
68948;BME280;55996;49.546;7.400;2023-09-19T10:30:46;98608.13;;;19.10;75.59
68948;BME280;55996;49.546;7.400;2023-09-19T10:33:21;98582.69;;;19.07;75.11
68948;BME280;55996;49.546;7.400;2023-09-19T10:35:48;98604.41;;;19.25;81.51
68948;BME280;55996;49.546;7.400;2023-09-19T10:38:18;98583.97;;;19.14;75.51
68948;BME280;55996;49.546;7.400;2023-09-19T10:40:49;98589.03;;;19.30;77.53
68948;BME280;55996;49.546;7.400;2023-09-19T10:43:16;98576.88;;;19.65;77.17
68948;BME280;55996;49.546;7.400;2023-09-19T10:45:49;98594.06;;;20.21;78.32
68948;BME280;55996;49.546;7.400;2023-09-19T10:48:16;98577.38;;;20.43;71.08
68948;BME280;55996;49.546;7.400;2023-09-19T10:53:20;98590.16;;;20.49;73.55
68948;BME280;55996;49.546;7.400;2023-09-19T10:55:53;98581.34;;;20.84;64.36
68948;BME280;55996;49.546;7.400;2023-09-19T10:58:28;98580.31;;;20.62;73.56
68948;BME280;55996;49.546;7.400;2023-09-19T11:01:00;98567.34;;;20.46;74.84
68948;BME280;55996;49.546;7.400;2023-09-19T11:03:40;98570.69;;;20.26;71.45
68948;BME280;55996;49.546;7.400;2023-09-19T11:08:55;98567.72;;;20.42;66.46
68948;BME280;55996;49.546;7.400;2023-09-19T11:11:48;98566.34;;;20.36;68.46
68948;BME280;55996;49.546;7.400;2023-09-19T11:30:39;98535.28;;;20.61;60.01
68948;BME280;55996;49.546;7.400;2023-09-19T11:33:25;98548.91;;;20.56;65.18
68948;BME280;55996;49.546;7.400;2023-09-19T11:46:26;98528.88;;;20.63;63.82
68948;BME280;55996;49.546;7.400;2023-09-19T11:48:53;98540.53;;;20.85;60.48
68948;BME280;55996;49.546;7.400;2023-09-19T11:51:23;98540.63;;;20.72;62.86
68948;BME280;55996;49.546;7.400;2023-09-19T11:53:56;98538.97;;;20.36;63.03
68948;BME280;55996;49.546;7.400;2023-09-19T11:56:25;98537.09;;;20.60;64.04
68948;BME280;55996;49.546;7.400;2023-09-19T11:58:54;98542.94;;;20.41;61.25
68948;BME280;55996;49.546;7.400;2023-09-19T12:01:25;98538.09;;;20.93;59.61
68948;BME280;55996;49.546;7.400;2023-09-19T12:03:56;98533.44;;;20.50;57.81
68948;BME280;55996;49.546;7.400;2023-09-19T12:06:24;98544.06;;;20.61;59.08
68948;BME280;55996;49.546;7.400;2023-09-19T12:08:50;98540.94;;;20.56;59.76
68948;BME280;55996;49.546;7.400;2023-09-19T12:11:19;98535.41;;;20.71;62.03
68948;BME280;55996;49.546;7.400;2023-09-19T12:13:47;98528.66;;;20.67;58.01
68948;BME280;55996;49.546;7.400;2023-09-19T12:16:18;98529.84;;;20.62;63.38
68948;BME280;55996;49.546;7.400;2023-09-19T12:18:48;98541.06;;;20.66;57.73
68948;BME280;55996;49.546;7.400;2023-09-19T12:21:31;98527.91;;;20.64;58.51
68948;BME280;55996;49.546;7.400;2023-09-19T12:26:39;98529.44;;;20.91;63.81
68948;BME280;55996;49.546;7.400;2023-09-19T12:29:25;98530.06;;;20.37;60.17
68948;BME280;55996;49.546;7.400;2023-09-19T12:31:56;98507.00;;;20.60;64.81
68948;BME280;55996;49.546;7.400;2023-09-19T12:34:30;98515.41;;;20.78;61.07
68948;BME280;55996;49.546;7.400;2023-09-19T12:39:44;98511.31;;;20.96;63.00
68948;BME280;55996;49.546;7.400;2023-09-19T12:42:26;98512.75;;;21.01;60.31
68948;BME280;55996;49.546;7.400;2023-09-19T12:44:58;98504.03;;;21.21;60.88
68948;BME280;55996;49.546;7.400;2023-09-19T12:47:27;98506.44;;;21.24;55.58
68948;BME280;55996;49.546;7.400;2023-09-19T12:50:13;98510.56;;;21.06;58.34
68948;BME280;55996;49.546;7.400;2023-09-19T12:52:52;98519.75;;;21.02;62.87
68948;BME280;55996;49.546;7.400;2023-09-19T12:55:25;98514.91;;;21.18;58.28
68948;BME280;55996;49.546;7.400;2023-09-19T12:58:09;98507.06;;;21.17;61.32
68948;BME280;55996;49.546;7.400;2023-09-19T13:00:44;98503.19;;;21.21;60.71
68948;BME280;55996;49.546;7.400;2023-09-19T13:03:13;98502.53;;;21.63;64.37
68948;BME280;55996;49.546;7.400;2023-09-19T13:08:23;98497.94;;;21.65;55.08
68948;BME280;55996;49.546;7.400;2023-09-19T13:11:16;98490.03;;;21.74;55.42
68948;BME280;55996;49.546;7.400;2023-09-19T13:13:44;98499.34;;;22.22;59.38
68948;BME280;55996;49.546;7.400;2023-09-19T13:16:11;98488.09;;;22.51;58.81
68948;BME280;55996;49.546;7.400;2023-09-19T13:18:46;98482.78;;;22.61;58.32
68948;BME280;55996;49.546;7.400;2023-09-19T13:21:13;98481.22;;;22.89;55.04
68948;BME280;55996;49.546;7.400;2023-09-19T13:23:53;98479.00;;;23.16;53.39
68948;BME280;55996;49.546;7.400;2023-09-19T13:26:24;98487.91;;;23.46;53.77
68948;BME280;55996;49.546;7.400;2023-09-19T13:28:50;98483.31;;;23.97;50.23
68948;BME280;55996;49.546;7.400;2023-09-19T13:31:15;98491.13;;;23.69;51.59
68948;BME280;55996;49.546;7.400;2023-09-19T13:33:45;98475.13;;;23.89;52.66
68948;BME280;55996;49.546;7.400;2023-09-19T13:36:11;98466.50;;;24.44;51.16
68948;BME280;55996;49.546;7.400;2023-09-19T13:38:39;98477.75;;;24.57;52.07
68948;BME280;55996;49.546;7.400;2023-09-19T13:41:05;98484.03;;;24.76;49.11
68948;BME280;55996;49.546;7.400;2023-09-19T13:43:31;98482.19;;;24.09;51.21
68948;BME280;55996;49.546;7.400;2023-09-19T13:45:56;98474.16;;;24.09;50.74
68948;BME280;55996;49.546;7.400;2023-09-19T13:48:22;98474.91;;;24.69;53.16
68948;BME280;55996;49.546;7.400;2023-09-19T13:50:49;98460.63;;;25.34;49.51
68948;BME280;55996;49.546;7.400;2023-09-19T13:53:15;98454.19;;;26.87;43.99
68948;BME280;55996;49.546;7.400;2023-09-19T13:55:42;98441.66;;;27.72;43.89